createdAt,value
2022-10-23T00:00:34.108Z,100895.72
2022-10-23T00:03:01.042Z,100906.22
2022-10-23T00:05:28.965Z,100912.25
2022-10-23T00:07:58.605Z,100905.16
2022-10-23T00:10:27.574Z,100901.53
2022-10-23T00:12:54.835Z,100900.63
2022-10-23T00:15:23.666Z,100888.19
2022-10-23T00:17:50.665Z,100896.19
2022-10-23T00:20:18.106Z,100900.59
2022-10-23T00:22:45.076Z,100911.22
2022-10-23T00:25:13.813Z,100913.81
2022-10-23T00:27:41.277Z,100920.91
2022-10-23T00:30:08.741Z,100918.28
2022-10-23T00:32:35.609Z,100924.53
2022-10-23T00:35:02.420Z,100923.66
2022-10-23T00:37:29.339Z,100923.69
2022-10-23T00:39:56.236Z,100928.97
2022-10-23T00:42:23.503Z,100926.34
2022-10-23T00:44:50.310Z,100930.78
2022-10-23T00:47:18.440Z,100922.00
2022-10-23T00:49:45.228Z,100918.53
2022-10-23T00:52:14.056Z,100930.94
2022-10-23T00:54:43.362Z,100927.44
2022-10-23T00:57:14.008Z,100933.66
2022-10-23T00:59:40.941Z,100940.75
2022-10-23T01:02:08.724Z,100941.63
2022-10-23T01:04:36.591Z,100952.22
2022-10-23T01:07:22.883Z,100955.75
2022-10-23T01:10:12.845Z,100965.47
2022-10-23T01:12:50.742Z,100969.88
2022-10-23T01:15:31.112Z,100974.28
2022-10-23T01:18:13.377Z,100971.69
2022-10-23T01:20:46.531Z,100980.47
2022-10-23T01:23:35.358Z,100993.69
2022-10-23T01:26:14.500Z,100993.69
2022-10-23T01:28:50.825Z,100987.50
2022-10-23T01:31:25.804Z,100995.47
2022-10-23T01:33:58.904Z,100983.13
2022-10-23T01:36:29.389Z,100984.00
2022-10-23T01:39:01.650Z,100982.22
2022-10-23T01:41:34.603Z,100991.06
2022-10-23T01:44:09.079Z,100991.03
2022-10-23T01:46:37.504Z,100984.88
2022-10-23T01:49:08.889Z,100986.66
2022-10-23T01:51:38.606Z,100997.22
2022-10-23T01:54:09.868Z,100996.34
2022-10-23T01:56:39.519Z,101002.53
2022-10-23T01:59:11.752Z,100987.50
2022-10-23T02:01:44.348Z,101004.28
2022-10-23T02:04:15.046Z,101012.19
2022-10-23T02:06:41.897Z,101004.28
2022-10-23T02:09:08.902Z,101006.87
2022-10-23T02:11:42.981Z,101007.75
2022-10-23T02:14:59.487Z,101013.03
2022-10-23T02:18:03.879Z,101010.37
2022-10-23T02:20:55.567Z,101001.56
2022-10-23T02:23:28.248Z,101009.50
2022-10-23T02:26:02.296Z,101006.84
2022-10-23T02:28:36.969Z,100999.78
2022-10-23T02:31:05.419Z,101003.31
2022-10-23T02:33:33.980Z,101008.56
2022-10-23T02:36:04.075Z,100992.75
2022-10-23T02:38:57.400Z,100992.75
2022-10-23T02:41:29.354Z,100999.75
2022-10-23T02:44:14.163Z,101005.88
2022-10-23T02:46:58.263Z,101009.41
2022-10-23T02:49:34.108Z,101010.25
2022-10-23T02:52:08.947Z,101012.91
2022-10-23T02:54:41.820Z,101021.72
2022-10-23T02:57:22.648Z,101012.84
2022-10-23T02:59:55.806Z,101014.59
2022-10-23T03:02:37.983Z,101018.09
2022-10-23T03:05:09.916Z,101013.69
2022-10-23T03:07:38.668Z,101026.87
2022-10-23T03:10:06.201Z,101019.78
2022-10-23T03:12:33.110Z,101039.16
2022-10-23T03:14:59.912Z,101040.94
2022-10-23T03:17:26.729Z,101044.44
2022-10-23T03:19:53.653Z,101040.00
2022-10-23T03:22:20.408Z,101030.22
2022-10-23T03:24:47.138Z,101045.19
2022-10-23T03:27:14.002Z,101043.41
2022-10-23T03:29:40.797Z,101045.09
2022-10-23T03:32:07.641Z,101047.66
2022-10-23T03:34:35.738Z,101050.34
2022-10-23T03:37:02.597Z,101041.56
2022-10-23T03:39:29.521Z,101050.34
2022-10-23T03:41:56.462Z,101052.03
2022-10-23T03:44:23.246Z,101051.09
2022-10-23T03:46:49.973Z,101045.81
2022-10-23T03:49:16.776Z,101052.06
2022-10-23T03:51:44.861Z,101051.19
2022-10-23T03:54:11.773Z,101052.91
2022-10-23T03:56:38.496Z,101058.19
2022-10-23T03:59:05.257Z,101060.81
2022-10-23T04:01:32.076Z,101051.09
2022-10-23T04:03:58.881Z,101063.41
2022-10-23T04:06:25.770Z,101062.50
2022-10-23T04:08:52.618Z,101073.06
2022-10-23T04:11:19.365Z,101072.16
2022-10-23T04:13:46.420Z,101078.28
2022-10-23T04:16:13.344Z,101080.00
2022-10-23T04:18:41.590Z,101081.69
2022-10-23T04:21:09.189Z,101065.75
2022-10-23T04:23:36.263Z,101066.53
2022-10-23T04:26:03.103Z,101071.84
2022-10-23T04:28:30.070Z,101065.66
2022-10-23T04:30:59.085Z,101063.91
2022-10-23T04:33:25.966Z,101062.19
2022-10-23T04:35:52.793Z,101059.56
2022-10-23T04:38:19.508Z,101055.22
2022-10-23T04:40:46.474Z,101060.47
2022-10-23T04:43:13.264Z,101051.66
2022-10-23T04:45:40.050Z,101064.00
2022-10-23T04:48:06.828Z,101065.72
2022-10-23T04:50:33.575Z,101056.94
2022-10-23T04:53:00.342Z,101049.84
2022-10-23T04:55:27.188Z,101056.97
2022-10-23T04:57:53.986Z,101056.03
2022-10-23T05:00:20.968Z,101062.16
2022-10-23T05:02:47.834Z,101071.78
2022-10-23T05:05:18.120Z,101060.28
2022-10-23T05:07:45.262Z,101061.13
2022-10-23T05:10:12.242Z,101060.25
2022-10-23T05:12:38.976Z,101070.75
2022-10-23T05:15:06.451Z,101061.09
2022-10-23T05:17:37.411Z,101069.03
2022-10-23T05:20:09.770Z,101070.00
2022-10-23T05:22:39.258Z,101082.28
2022-10-23T05:25:06.135Z,101083.12
2022-10-23T05:27:33.062Z,101087.56
2022-10-23T05:30:00.091Z,101083.16
2022-10-23T05:32:29.684Z,101076.19
2022-10-23T05:34:56.943Z,101074.44
2022-10-23T05:37:23.898Z,101086.78
2022-10-23T05:39:50.814Z,101077.94
2022-10-23T05:42:17.798Z,101096.41
2022-10-23T05:44:44.616Z,101086.75
2022-10-23T05:47:11.411Z,101083.28
2022-10-23T05:49:38.140Z,101088.59
2022-10-23T05:52:05.243Z,101085.06
2022-10-23T05:54:32.081Z,101098.31
2022-10-23T05:56:58.875Z,101094.87
2022-10-23T05:59:25.686Z,101102.81
2022-10-23T06:01:52.659Z,101086.06
2022-10-23T06:04:19.598Z,101113.44
2022-10-23T06:06:47.119Z,101113.47
2022-10-23T06:09:15.362Z,101112.69
2022-10-23T06:11:42.696Z,101118.03
2022-10-23T06:14:09.517Z,101125.19
2022-10-23T06:16:36.437Z,101131.38
2022-10-23T06:19:03.614Z,101144.59
2022-10-23T06:21:30.332Z,101147.22
2022-10-23T06:23:57.278Z,101143.78
2022-10-23T06:26:24.049Z,101146.47
2022-10-23T06:28:50.890Z,101133.31
2022-10-23T06:31:19.678Z,101129.00
2022-10-23T06:33:46.571Z,101134.31
2022-10-23T06:36:13.369Z,101141.34
2022-10-23T06:38:40.767Z,101151.94
2022-10-23T06:41:13.309Z,101149.25
2022-10-23T06:43:40.157Z,101152.84
2022-10-23T06:46:07.154Z,101138.81
2022-10-23T06:48:34.143Z,101156.50
2022-10-23T06:51:07.048Z,101135.44
2022-10-23T06:53:34.295Z,101148.69
2022-10-23T06:56:02.237Z,101147.88
2022-10-23T06:58:29.191Z,101154.06
2022-10-23T07:00:59.734Z,101160.25
2022-10-23T07:03:26.621Z,101155.87
2022-10-23T07:05:53.439Z,101145.31
2022-10-23T07:08:20.375Z,101139.16
2022-10-23T07:10:48.520Z,101148.87
2022-10-23T07:13:15.387Z,101166.53
2022-10-23T07:15:42.180Z,101168.28
2022-10-23T07:18:14.551Z,101157.69
2022-10-23T07:20:41.988Z,101177.09
2022-10-23T07:23:11.172Z,101180.62
2022-10-23T07:25:38.282Z,101185.03
2022-10-23T07:28:05.389Z,101182.37
2022-10-23T07:30:32.141Z,101156.78
2022-10-23T07:32:59.207Z,101168.25
2022-10-23T07:35:25.976Z,101180.56
2022-10-23T07:37:52.977Z,101173.53
2022-10-23T07:40:19.852Z,101186.75
2022-10-23T07:42:46.587Z,101174.34
2022-10-23T07:45:13.356Z,101171.69
2022-10-23T07:47:40.399Z,101160.19
2022-10-23T07:50:08.200Z,101168.13
2022-10-23T07:52:36.409Z,101167.19
2022-10-23T07:55:03.633Z,101166.28
2022-10-23T07:57:30.533Z,101156.53
2022-10-23T07:59:57.531Z,101159.94
2022-10-23T08:02:24.392Z,101166.97
2022-10-23T08:04:51.353Z,101168.78
2022-10-23T08:07:18.247Z,101173.19
2022-10-23T08:09:45.192Z,101168.91
2022-10-23T08:12:11.932Z,101177.72
2022-10-23T08:14:38.826Z,101169.81
2022-10-23T08:17:05.742Z,101185.59
2022-10-23T08:19:32.755Z,101182.94
2022-10-23T08:21:59.590Z,101172.22
2022-10-23T08:24:26.384Z,101169.59
2022-10-23T08:26:53.168Z,101167.69
2022-10-23T08:29:19.926Z,101169.37
2022-10-23T08:31:46.942Z,101173.78
2022-10-23T08:34:15.393Z,101173.63
2022-10-23T08:36:42.281Z,101166.47
2022-10-23T08:39:09.660Z,101161.84
2022-10-23T08:41:40.400Z,101159.09
2022-10-23T08:44:18.264Z,101173.25
2022-10-23T08:46:50.689Z,101169.63
2022-10-23T08:49:20.500Z,101171.34
2022-10-23T08:51:51.855Z,101178.22
2022-10-23T08:54:28.082Z,101170.41
2022-10-23T08:57:02.754Z,101176.53
2022-10-23T08:59:44.384Z,101170.19
2022-10-23T09:02:17.974Z,101160.38
2022-10-23T09:04:47.528Z,101163.84
2022-10-23T09:07:39.543Z,101169.34
2022-10-23T09:10:36.726Z,101167.50
2022-10-23T09:13:16.350Z,101171.06
2022-10-23T09:15:47.996Z,101165.50
2022-10-23T09:18:16.749Z,101164.53
2022-10-23T09:20:46.213Z,101165.41
2022-10-23T09:23:16.875Z,101164.34
2022-10-23T09:25:45.602Z,101170.47
2022-10-23T09:28:20.156Z,101165.84
2022-10-23T09:30:48.127Z,101166.28
2022-10-23T09:33:19.130Z,101169.66
2022-10-23T09:35:54.827Z,101172.75
2022-10-23T09:38:27.799Z,101163.47
2022-10-23T09:40:55.328Z,101162.91
2022-10-23T09:43:24.170Z,101155.72
2022-10-23T09:46:03.312Z,101159.50
2022-10-23T09:48:30.181Z,101154.78
2022-10-23T09:51:03.283Z,101154.25
2022-10-23T09:53:48.159Z,101149.69
2022-10-23T09:56:34.024Z,101142.81
2022-10-23T09:59:13.049Z,101157.19
2022-10-23T10:02:13.808Z,101155.69
2022-10-23T10:04:41.817Z,101154.56
2022-10-23T10:07:36.703Z,101150.47
2022-10-23T10:10:13.922Z,101116.75
2022-10-23T10:13:25.542Z,101133.56
2022-10-23T10:15:58.149Z,101139.03
2022-10-23T10:18:37.384Z,101126.50
2022-10-23T10:21:51.083Z,101133.38
2022-10-23T10:24:28.194Z,101124.72
2022-10-23T10:27:03.928Z,101128.78
2022-10-23T10:29:41.657Z,101110.22
2022-10-23T10:32:20.414Z,101105.16
2022-10-23T10:35:24.801Z,101110.25
2022-10-23T10:37:57.411Z,101109.44
2022-10-23T10:40:38.458Z,101099.59
2022-10-23T10:43:23.819Z,101090.25
2022-10-23T10:46:10.267Z,101091.06
2022-10-23T10:48:52.517Z,101088.25
2022-10-23T10:52:01.411Z,101076.44
2022-10-23T10:55:05.569Z,101060.69
2022-10-23T10:57:38.318Z,101062.59
2022-10-23T11:00:14.949Z,101055.47
2022-10-23T11:03:00.832Z,101061.97
2022-10-23T11:05:32.536Z,101048.31
2022-10-23T11:08:17.858Z,101044.50
2022-10-23T11:10:47.385Z,101042.50
2022-10-23T11:13:37.886Z,101042.19
2022-10-23T11:16:12.780Z,101039.28
2022-10-23T11:18:44.115Z,101036.38
2022-10-23T11:21:25.849Z,101039.28
2022-10-23T11:24:15.445Z,101032.72
2022-10-23T11:27:00.033Z,101024.53
2022-10-23T11:29:35.829Z,101023.00
2022-10-23T11:32:24.425Z,101024.63
2022-10-23T11:35:03.943Z,101017.28
2022-10-23T11:37:30.959Z,101017.84
2022-10-23T11:40:06.539Z,101008.38
2022-10-23T11:42:47.176Z,101017.34
2022-10-23T11:45:32.034Z,101008.94
2022-10-23T11:48:05.556Z,101012.25
2022-10-23T11:50:49.938Z,101011.25
2022-10-23T11:53:31.567Z,101013.09
2022-10-23T11:56:03.928Z,101008.78
2022-10-23T11:58:48.590Z,100998.81
2022-10-23T12:01:19.912Z,101006.91
2022-10-23T12:03:58.003Z,100996.63
2022-10-23T12:06:28.849Z,100992.16
2022-10-23T12:09:01.873Z,100986.19
2022-10-23T12:11:43.986Z,100989.66
2022-10-23T12:14:26.706Z,100987.06
2022-10-23T12:16:54.063Z,100991.59
2022-10-23T12:19:23.674Z,100989.16
2022-10-23T12:21:53.650Z,100981.88
2022-10-23T12:24:58.404Z,100992.41
2022-10-23T12:27:38.187Z,100984.91
2022-10-23T12:31:04.497Z,100974.28
2022-10-23T12:33:50.106Z,100973.94
2022-10-23T12:36:41.938Z,100965.31
2022-10-23T12:39:28.212Z,100970.06
2022-10-23T12:41:56.409Z,100957.72
2022-10-23T12:44:25.720Z,100953.69
2022-10-23T12:46:58.248Z,100950.53
2022-10-23T12:49:27.982Z,100945.25
2022-10-23T12:52:00.942Z,100947.38
2022-10-23T12:54:30.589Z,100944.06
2022-10-23T12:56:57.962Z,100939.47
2022-10-23T12:59:28.362Z,100940.47
2022-10-23T13:01:55.897Z,100929.16
2022-10-23T13:04:29.148Z,100931.66
2022-10-23T13:06:59.191Z,100935.28
2022-10-23T13:09:40.803Z,100934.56
2022-10-23T13:12:16.297Z,100936.34
2022-10-23T13:14:56.928Z,100936.13
2022-10-23T13:17:38.766Z,100925.72
2022-10-23T13:20:22.326Z,100926.59
2022-10-23T13:23:09.235Z,100922.94
2022-10-23T13:25:39.043Z,100917.12
2022-10-23T13:28:25.813Z,100911.44
2022-10-23T13:31:10.587Z,100917.06
2022-10-23T13:33:52.639Z,100906.25
2022-10-23T13:36:23.196Z,100912.38
2022-10-23T13:39:02.158Z,100906.47
2022-10-23T13:41:36.897Z,100908.19
2022-10-23T13:44:04.250Z,100910.69
2022-10-23T13:46:32.394Z,100903.06
2022-10-23T13:48:59.634Z,100908.69
2022-10-23T13:51:37.571Z,100896.53
2022-10-23T13:54:15.313Z,100897.50
2022-10-23T13:56:43.041Z,100893.66
2022-10-23T13:59:11.175Z,100888.88
2022-10-23T14:01:39.347Z,100886.34
2022-10-23T14:04:07.763Z,100891.37
2022-10-23T14:06:37.588Z,100883.31
2022-10-23T14:09:16.334Z,100887.41
2022-10-23T14:11:44.130Z,100880.25
2022-10-23T14:14:11.809Z,100893.63
2022-10-23T14:16:39.960Z,100888.59
2022-10-23T14:19:07.991Z,100879.44
2022-10-23T14:21:35.528Z,100886.75
2022-10-23T14:24:02.960Z,100881.06
2022-10-23T14:26:30.472Z,100886.44
2022-10-23T14:29:02.299Z,100878.72
2022-10-23T14:31:38.253Z,100882.38
2022-10-23T14:34:05.862Z,100893.69
2022-10-23T14:36:43.274Z,100883.34
2022-10-23T14:39:18.870Z,100878.06
2022-10-23T14:41:47.850Z,100875.28
2022-10-23T14:44:15.410Z,100876.81
2022-10-23T14:46:45.199Z,100865.72
2022-10-23T14:49:13.495Z,100867.56
2022-10-23T14:51:41.193Z,100871.19
2022-10-23T14:54:09.681Z,100857.09
2022-10-23T14:56:40.035Z,100856.69
2022-10-23T14:59:09.620Z,100849.28
2022-10-23T15:01:43.748Z,100851.44
2022-10-23T15:04:17.241Z,100845.59
2022-10-23T15:06:47.172Z,100853.63
2022-10-23T15:09:15.028Z,100854.50
2022-10-23T15:11:42.852Z,100847.13
2022-10-23T15:14:12.268Z,100859.41
2022-10-23T15:16:43.182Z,100858.41
2022-10-23T15:19:15.459Z,100863.72
2022-10-23T15:21:47.175Z,100847.69
2022-10-23T15:24:18.485Z,100835.16
2022-10-23T15:26:46.500Z,100831.69
2022-10-23T15:29:15.048Z,100819.38
2022-10-23T15:31:45.889Z,100828.28
2022-10-23T15:34:19.882Z,100828.94
2022-10-23T15:36:48.878Z,100832.44
2022-10-23T15:39:22.265Z,100824.22
2022-10-23T15:41:53.634Z,100838.44
2022-10-23T15:44:25.245Z,100826.94
2022-10-23T15:46:57.369Z,100828.09
2022-10-23T15:49:26.838Z,100834.53
2022-10-23T15:51:55.883Z,100833.19
2022-10-23T15:54:28.044Z,100835.19
2022-10-23T15:56:59.207Z,100840.69
2022-10-23T15:59:27.644Z,100848.84
2022-10-23T16:01:55.916Z,100844.19
2022-10-23T16:04:24.942Z,100855.75
2022-10-23T16:06:52.619Z,100855.81
2022-10-23T16:09:20.437Z,100857.56
2022-10-23T16:11:49.211Z,100853.16
2022-10-23T16:14:17.981Z,100859.41
2022-10-23T16:16:45.826Z,100858.69
2022-10-23T16:19:17.751Z,100870.22
2022-10-23T16:21:45.564Z,100876.66
2022-10-23T16:24:13.049Z,100878.53
2022-10-23T16:26:41.215Z,100884.87
2022-10-23T16:29:10.017Z,100891.19
2022-10-23T16:31:38.927Z,100883.16
2022-10-23T16:34:07.572Z,100874.53
2022-10-23T16:36:39.140Z,100878.91
2022-10-23T16:39:09.882Z,100877.22
2022-10-23T16:41:37.265Z,100893.25
2022-10-23T16:44:06.820Z,100883.75
2022-10-23T16:46:36.078Z,100905.88
2022-10-23T16:49:04.243Z,100889.16
2022-10-23T16:51:32.439Z,100897.25
2022-10-23T16:54:01.916Z,100885.09
2022-10-23T16:56:31.358Z,100878.97
2022-10-23T16:59:00.553Z,100884.41
2022-10-23T17:01:32.017Z,100890.78
2022-10-23T17:04:00.922Z,100891.69
2022-10-23T17:06:32.551Z,100889.78
2022-10-23T17:09:02.133Z,100896.06
2022-10-23T17:11:36.081Z,100894.22
2022-10-23T17:14:29.848Z,100907.87
2022-10-23T17:17:01.851Z,100914.87
2022-10-23T17:19:47.221Z,100916.69
2022-10-23T17:22:16.432Z,100911.44
2022-10-23T17:24:47.459Z,100901.75
2022-10-23T17:27:19.538Z,100883.34
2022-10-23T17:29:48.037Z,100899.94
2022-10-23T17:32:17.671Z,100901.72
2022-10-23T17:34:46.754Z,100899.25
2022-10-23T17:37:15.714Z,100894.91
2022-10-23T17:39:44.011Z,100890.38
2022-10-23T17:42:13.458Z,100881.47
2022-10-23T17:44:41.456Z,100880.75
2022-10-23T17:47:09.482Z,100875.41
2022-10-23T17:49:40.635Z,100886.19
2022-10-23T17:52:14.744Z,100890.75
2022-10-23T17:54:42.771Z,100876.44
2022-10-23T17:57:18.051Z,100869.34
2022-10-23T17:59:46.364Z,100875.69
2022-10-23T18:02:14.909Z,100867.91
2022-10-23T18:04:46.319Z,100867.13
2022-10-23T18:07:16.027Z,100871.63
2022-10-23T18:09:45.563Z,100876.19
2022-10-23T18:12:14.105Z,100869.16
2022-10-23T18:14:43.371Z,100873.63
2022-10-23T18:17:11.833Z,100868.31
2022-10-23T18:19:40.507Z,100852.66
2022-10-23T18:22:09.415Z,100880.09
2022-10-23T18:24:39.604Z,100872.13
2022-10-23T18:27:08.010Z,100867.13
2022-10-23T18:29:36.335Z,100871.28
2022-10-23T18:32:05.275Z,100882.75
2022-10-23T18:34:33.938Z,100890.59
2022-10-23T18:37:03.136Z,100888.75
2022-10-23T18:39:34.753Z,100884.34
2022-10-23T18:42:02.977Z,100883.19
2022-10-23T18:44:30.948Z,100881.34
2022-10-23T18:47:00.253Z,100884.97
2022-10-23T18:49:29.459Z,100866.34
2022-10-23T18:51:58.822Z,100870.75
2022-10-23T18:54:26.915Z,100874.28
2022-10-23T18:56:56.062Z,100876.06
2022-10-23T18:59:24.895Z,100868.91
2022-10-23T19:01:55.133Z,100872.38
2022-10-23T19:04:24.440Z,100870.56
2022-10-23T19:06:53.382Z,100873.25
2022-10-23T19:09:22.555Z,100871.59
2022-10-23T19:11:50.537Z,100880.47
2022-10-23T19:14:19.522Z,100884.09
2022-10-23T19:16:54.674Z,100877.84
2022-10-23T19:19:27.031Z,100886.69
2022-10-23T19:21:55.787Z,100886.66
2022-10-23T19:24:32.442Z,100884.97
2022-10-23T19:27:01.852Z,100877.91
2022-10-23T19:29:31.469Z,100885.78
2022-10-23T19:32:00.785Z,100888.44
2022-10-23T19:34:29.655Z,100885.88
2022-10-23T19:36:58.036Z,100884.19
2022-10-23T19:39:27.157Z,100880.56
2022-10-23T19:41:58.550Z,100870.81
2022-10-23T19:44:26.953Z,100867.28
2022-10-23T19:46:55.083Z,100865.50
2022-10-23T19:49:24.325Z,100864.72
2022-10-23T19:51:53.423Z,100865.62
2022-10-23T19:54:22.312Z,100869.19
2022-10-23T19:56:53.488Z,100871.09
2022-10-23T19:59:21.914Z,100868.69
2022-10-23T20:01:50.550Z,100873.09
2022-10-23T20:04:19.135Z,100881.06
2022-10-23T20:06:47.999Z,100874.13
2022-10-23T20:09:16.286Z,100882.06
2022-10-23T20:11:45.630Z,100880.34
2022-10-23T20:14:13.767Z,100877.66
2022-10-23T20:16:45.295Z,100885.75
2022-10-23T20:21:49.815Z,100883.06
2022-10-23T20:24:19.888Z,100879.53
2022-10-23T20:26:50.535Z,100889.44
2022-10-23T20:29:18.807Z,100888.66
2022-10-23T20:31:46.570Z,100884.09
2022-10-23T20:34:14.869Z,100884.13
2022-10-23T20:36:46.753Z,100888.59
2022-10-23T20:39:26.042Z,100877.91
2022-10-23T20:41:55.869Z,100879.72
2022-10-23T20:44:24.257Z,100862.03
2022-10-23T20:46:55.276Z,100873.41
2022-10-23T20:49:23.789Z,100868.13
2022-10-23T20:51:56.194Z,100862.88
2022-10-23T20:54:25.598Z,100866.47
2022-10-23T20:56:52.828Z,100861.25
2022-10-23T20:59:19.825Z,100854.34
2022-10-23T21:01:53.440Z,100843.84
2022-10-23T21:04:24.443Z,100845.03
2022-10-23T21:07:10.300Z,100842.66
2022-10-23T21:09:40.650Z,100837.63
2022-10-23T21:12:08.394Z,100835.25
2022-10-23T21:14:35.862Z,100832.78
2022-10-23T21:17:03.075Z,100840.97
2022-10-23T21:19:29.810Z,100832.94
2022-10-23T21:21:56.741Z,100832.03
2022-10-23T21:24:24.653Z,100832.03
2022-10-23T21:26:51.619Z,100831.16
2022-10-23T21:29:19.819Z,100818.59
2022-10-23T21:31:59.385Z,100818.53
2022-10-23T21:34:27.171Z,100823.81
2022-10-23T21:37:12.050Z,100831.72
2022-10-23T21:39:40.679Z,100823.63
2022-10-23T21:42:07.890Z,100828.06
2022-10-23T21:44:34.735Z,100825.34
2022-10-23T21:47:01.930Z,100835.06
2022-10-23T21:49:29.026Z,100825.38
2022-10-23T21:51:55.896Z,100840.28
2022-10-23T21:54:22.808Z,100842.16
2022-10-23T21:56:51.359Z,100848.41
2022-10-23T21:59:20.885Z,100847.50
2022-10-23T22:01:48.933Z,100838.56
2022-10-23T22:04:17.483Z,100828.97
2022-10-23T22:06:46.298Z,100841.25
2022-10-23T22:09:15.541Z,100833.22
2022-10-23T22:11:43.091Z,100824.38
2022-10-23T22:14:10.024Z,100827.00
2022-10-23T22:16:37.319Z,100820.97
2022-10-23T22:19:04.511Z,100830.69
2022-10-23T22:21:31.702Z,100841.41
2022-10-23T22:24:00.330Z,100819.63
2022-10-23T22:26:49.311Z,100851.22
2022-10-23T22:29:23.514Z,100844.06
2022-10-23T22:31:50.850Z,100842.31
2022-10-23T22:34:28.735Z,100836.97
2022-10-23T22:37:10.966Z,100844.91
2022-10-23T22:39:38.468Z,100845.00
2022-10-23T22:42:05.402Z,100849.41
2022-10-23T22:44:32.143Z,100850.34
2022-10-23T22:46:59.036Z,100860.16
2022-10-23T22:49:25.970Z,100848.59
2022-10-23T22:51:52.897Z,100846.84
2022-10-23T22:54:19.682Z,100848.75
2022-10-23T22:56:46.498Z,100846.97
2022-10-23T22:59:13.222Z,100833.81
2022-10-23T23:01:43.846Z,100841.84
2022-10-23T23:07:10.029Z,100844.38
2022-10-23T23:09:41.956Z,100839.97
2022-10-23T23:12:11.128Z,100839.03
2022-10-23T23:14:38.292Z,100829.34
2022-10-23T23:17:07.018Z,100841.81
2022-10-23T23:19:34.298Z,100840.94
2022-10-23T23:22:01.389Z,100844.47
2022-10-23T23:24:28.256Z,100828.56
2022-10-23T23:26:55.083Z,100824.03
2022-10-23T23:29:22.083Z,100835.69
2022-10-23T23:31:51.240Z,100833.03
2022-10-23T23:34:18.081Z,100829.50
2022-10-23T23:36:45.022Z,100824.22
2022-10-23T23:39:11.902Z,100829.56
2022-10-23T23:41:38.646Z,100825.16
2022-10-23T23:44:05.740Z,100820.78
2022-10-23T23:46:32.514Z,100830.50
2022-10-23T23:48:59.385Z,100818.09
2022-10-23T23:51:26.312Z,100811.09
2022-10-23T23:53:53.619Z,100809.41
2022-10-23T23:56:20.883Z,100813.03
2022-10-23T23:58:47.819Z,100817.56
